Time;durP1;ratioP1;P1;durP2;ratioP2;P2;SDS_P1;SDS_P2;PMS_P1;PMS_P2;Temp;Humidity;BMP_temperature;BMP_pressure;BME280_temperature;BME280_humidity;BME280_pressure;Samples;Min_cycle;Max_cycle;Signal;HPM_P1;HPM_P2
2022/07/13 00:00:26;;;;;;;0.95;0.45;;;;;;;15.57;72.18;99616.20;1648530;84;21029;-71
2022/07/13 00:02:53;;;;;;;0.20;0.10;;;;;;;15.56;72.07;99607.88;1668562;84;21020;-69
2022/07/13 00:05:19;;;;;;;;;;;;;;;15.54;72.14;99616.17;1665471;84;21022;-70
2022/07/13 00:07:46;;;;;;;0.37;0.20;;;;;;;15.54;72.22;99607.30;1671101;84;20101;-70
2022/07/13 00:10:12;;;;;;;0.20;0.10;;;;;;;15.48;72.21;99603.70;1666409;84;21014;-70
2022/07/13 00:12:39;;;;;;;;;;;;;;;15.48;72.47;99598.84;1643312;84;21002;-71
2022/07/13 00:15:07;;;;;;;1.62;0.10;;;;;;;15.49;72.11;99597.80;1635822;86;20120;-71
2022/07/13 00:17:33;;;;;;;0.40;0.23;;;;;;;15.43;72.33;99595.53;1578956;89;21106;-71
2022/07/13 00:19:59;;;;;;;0.75;0.10;;;;;;;15.43;72.60;99595.53;1636406;86;21034;-72
2022/07/13 00:22:25;;;;;;;;;;;;;;;15.41;72.50;99592.28;1651586;85;21535;-68
2022/07/13 00:24:51;;;;;;;2.05;0.10;;;;;;;15.10;72.62;99543.85;1680710;84;20138;-68
2022/07/13 00:27:18;;;;;;;0.15;0.15;;;;;;;15.34;72.84;99586.22;1673601;84;21110;-69
2022/07/13 00:29:44;;;;;;;3.33;0.20;;;;;;;15.34;72.96;99589.71;1671913;84;21510;-69
2022/07/13 00:32:11;;;;;;;0.75;0.20;;;;;;;15.34;72.99;99572.80;1690302;84;21083;-70
2022/07/13 00:34:37;;;;;;;1.40;0.10;;;;;;;15.33;73.17;99578.70;1684329;83;20989;-70
2022/07/13 00:37:03;;;;;;;0.13;0.10;;;;;;;15.35;73.22;99583.30;1694157;84;21538;-70
2022/07/13 00:39:29;;;;;;;;;;;;;;;15.37;73.01;99570.45;1657275;85;21126;-70
2022/07/13 00:41:57;;;;;;;0.95;0.28;;;;;;;15.35;73.15;99564.51;1681820;84;20133;-70
2022/07/13 00:44:23;;;;;;;2.90;0.30;;;;;;;15.29;73.42;99550.67;1669098;83;21304;-70
2022/07/13 00:46:54;;;;;;;0.60;0.10;;;;;;;15.30;73.18;99564.40;1683428;84;21005;-69
2022/07/13 00:49:22;;;;;;;0.47;0.10;;;;;;;15.31;73.35;99548.59;1682069;84;21021;-68
2022/07/13 00:51:49;;;;;;;1.05;0.10;;;;;;;15.31;73.37;99543.73;1668970;84;21008;-69
2022/07/13 00:54:20;;;;;;;0.40;0.10;;;;;;;15.31;73.54;99545.07;1678066;84;20982;-70
2022/07/13 00:56:49;;;;;;;0.65;0.20;;;;;;;15.30;73.53;99542.11;1666076;84;21033;-70
2022/07/13 00:59:16;;;;;;;0.10;0.10;;;;;;;15.29;73.60;99545.84;1680587;84;21141;-71
2022/07/13 01:01:42;;;;;;;;;;;;;;;15.25;73.71;99541.47;1662389;84;21131;-68
2022/07/13 01:04:08;;;;;;;4.67;0.20;;;;;;;15.27;73.82;99533.98;1639879;86;20501;-69
2022/07/13 01:06:35;;;;;;;0.20;0.20;;;;;;;15.23;74.32;99530.69;1642709;86;21051;-68
2022/07/13 01:09:01;;;;;;;1.17;0.10;;;;;;;15.22;74.61;99531.23;1625256;86;21093;-69
2022/07/13 01:11:29;;;;;;;0.95;0.10;;;;;;;15.21;74.33;99527.44;1632667;86;21059;-70
2022/07/13 01:13:56;;;;;;;1.37;0.10;;;;;;;15.22;74.23;99525.86;1628610;86;21487;-71
2022/07/13 01:16:24;;;;;;;0.40;0.20;;;;;;;15.23;74.33;99516.73;1625818;86;21144;-72
2022/07/13 01:18:51;;;;;;;1.67;0.20;;;;;;;15.23;74.36;99528.01;1634040;86;21034;-71
2022/07/13 01:21:19;;;;;;;0.72;0.20;;;;;;;15.21;74.15;99512.13;1632187;86;21054;-71
2022/07/13 01:23:45;;;;;;;1.37;0.20;;;;;;;15.20;74.06;99519.92;1633223;86;20982;-69
2022/07/13 01:26:13;;;;;;;1.77;0.10;;;;;;;15.20;74.22;99510.52;1642580;86;21478;-70
2022/07/13 01:28:39;;;;;;;0.20;0.20;;;;;;;15.15;74.37;99515.25;1636717;86;21151;-71
2022/07/13 01:31:06;;;;;;;0.53;0.10;;;;;;;15.14;74.42;99508.77;1631295;86;21014;-71
2022/07/13 01:33:33;;;;;;;7.22;0.45;;;;;;;15.15;74.47;99517.12;1637772;84;20978;-71
2022/07/13 01:35:59;;;;;;;3.12;0.28;;;;;;;15.15;74.56;99505.05;1656294;84;21006;-70
2022/07/13 01:38:30;;;;;;;1.32;0.10;;;;;;;15.14;74.70;99508.77;1674152;84;21073;-68
2022/07/13 01:40:56;;;;;;;0.30;0.10;;;;;;;15.12;74.65;99508.19;1672805;84;21057;-71
2022/07/13 01:43:29;;;;;;;0.20;0.10;;;;;;;15.14;74.60;99510.11;1670790;84;21155;-71
2022/07/13 01:45:55;;;;;;;2.95;0.10;;;;;;;15.10;74.48;99502.25;1668635;84;21031;-72
2022/07/13 01:48:22;;;;;;;0.10;0.10;;;;;;;15.11;74.75;99511.41;1670408;84;21705;-71
2022/07/13 01:50:51;;;;;;;0.40;0.20;;;;;;;15.11;74.84;99497.19;1668982;84;22077;-70
2022/07/13 01:53:18;;;;;;;0.80;0.17;;;;;;;15.10;75.13;99508.42;1669905;84;21091;-69
2022/07/13 01:55:44;;;;;;;1.25;0.20;;;;;;;15.09;75.79;99506.00;1675160;84;21474;-69
2022/07/13 01:58:11;;;;;;;0.23;0.13;;;;;;;15.04;76.05;99500.53;1604596;89;21123;-70
2022/07/13 02:00:38;;;;;;;4.05;0.30;;;;;;;14.99;75.99;99499.38;1671818;84;21070;-69
2022/07/13 02:03:06;;;;;;;0.88;0.20;;;;;;;14.97;76.71;99496.12;1697398;84;20987;-70
2022/07/13 02:05:34;;;;;;;1.75;0.10;;;;;;;14.93;76.80;99487.42;1697737;84;21046;-70
2022/07/13 02:08:00;;;;;;;;;;;;;;;14.91;77.41;99496.23;1697099;84;21094;-69
2022/07/13 02:10:36;;;;;;;0.42;0.20;;;;;;;14.87;77.75;99490.53;1690745;84;20217;-70
2022/07/13 02:13:05;;;;;;;0.30;0.20;;;;;;;14.77;78.52;99495.16;1701278;83;21476;-70
2022/07/13 02:15:32;;;;;;;0.20;0.10;;;;;;;14.72;78.90;99491.56;1702896;83;21594;-70
2022/07/13 02:17:58;;;;;;;0.85;0.13;;;;;;;14.70;79.40;99501.18;1699481;84;21553;-70
2022/07/13 02:20:26;;;;;;;2.02;0.62;;;;;;;14.37;79.92;99441.44;1699766;84;21063;-71
2022/07/13 02:22:52;;;;;;;0.65;0.20;;;;;;;14.63;80.15;99484.39;1688215;84;21052;-68
2022/07/13 02:25:20;;;;;;;0.35;0.10;;;;;;;14.58;80.96;99479.75;1671767;84;21079;-70
2022/07/13 02:27:48;;;;;;;0.50;0.10;;;;;;;14.52;81.88;99483.34;1669309;86;21083;-70
2022/07/13 02:30:15;;;;;;;;;;;;;;;14.43;82.67;99480.73;1673233;86;21537;-70
2022/07/13 02:32:45;;;;;;;1.22;0.30;;;;;;;14.36;83.21;99471.45;1637316;86;20115;-70
2022/07/13 02:35:13;;;;;;;3.30;0.20;;;;;;;14.28;83.73;99469.64;1670668;84;21056;-70
2022/07/13 02:37:41;;;;;;;0.45;0.25;;;;;;;14.24;84.00;99470.66;1672740;84;21065;-70
2022/07/13 02:40:10;;;;;;;1.40;0.20;;;;;;;14.16;84.56;99469.12;1671494;84;21044;-70
2022/07/13 02:42:37;;;;;;;0.95;0.30;;;;;;;14.16;84.73;99462.95;1668906;84;21042;-69
2022/07/13 02:45:06;;;;;;;2.87;0.20;;;;;;;14.11;84.77;99466.84;1670588;84;21504;-70
2022/07/13 02:47:32;;;;;;;3.20;0.20;;;;;;;14.11;85.14;99454.28;1671352;84;21469;-72
2022/07/13 02:50:01;;;;;;;0.85;0.20;;;;;;;14.09;85.01;99448.34;1668723;84;21562;-70
2022/07/13 02:52:28;;;;;;;1.07;0.10;;;;;;;14.12;85.10;99458.58;1674358;84;21074;-71
2022/07/13 02:54:54;;;;;;;0.65;0.10;;;;;;;14.12;85.17;99452.41;1670682;84;21053;-70
2022/07/13 02:57:20;;;;;;;;;;;;;;;14.10;85.80;99460.67;1691235;83;20983;-71
2022/07/13 02:59:50;;;;;;;0.23;0.10;;;;;;;14.08;86.29;99452.06;1700535;83;20121;-70
2022/07/13 03:02:18;;;;;;;0.50;0.20;;;;;;;14.02;86.54;99449.79;1660510;84;21043;-71
2022/07/13 03:04:46;;;;;;;0.30;0.30;;;;;;;13.97;87.13;99442.96;1654171;86;21060;-70
2022/07/13 03:07:12;;;;;;;0.20;0.10;;;;;;;13.97;87.37;99444.83;1656291;86;21028;-70
2022/07/13 03:09:39;;;;;;;;;;;;;;;13.96;87.32;99433.84;1655635;86;21095;-70
2022/07/13 03:12:05;;;;;;;0.20;0.20;;;;;;;13.92;87.44;99440.19;1651638;85;20147;-71
2022/07/13 03:14:32;;;;;;;1.45;0.20;;;;;;;13.87;87.68;99433.36;1658974;86;21028;-69
2022/07/13 03:16:58;;;;;;;3.70;0.20;;;;;;;13.85;88.23;99442.69;1662692;86;21523;-69
2022/07/13 03:19:25;;;;;;;0.35;0.20;;;;;;;13.85;88.51;99436.80;1642265;86;21100;-69
2022/07/13 03:21:51;;;;;;;0.93;0.30;;;;;;;13.86;88.23;99441.09;1657238;86;21527;-71
2022/07/13 03:24:18;;;;;;;1.70;0.25;;;;;;;13.88;88.28;99431.48;1656208;85;21313;-69
2022/07/13 03:26:44;;;;;;;0.78;0.20;;;;;;;13.89;87.71;99435.28;1667300;85;21051;-70
2022/07/13 03:29:10;;;;;;;0.75;0.40;;;;;;;13.93;88.06;99435.10;1658376;85;21053;-70
2022/07/13 03:31:37;;;;;;;0.82;0.20;;;;;;;13.95;88.05;99428.18;1641409;85;21024;-70
2022/07/13 03:34:03;;;;;;;0.20;0.10;;;;;;;13.97;87.62;99440.28;1659708;85;21179;-69
2022/07/13 03:36:31;;;;;;;0.10;0.10;;;;;;;14.00;87.66;99429.64;1640838;86;21098;-71
2022/07/13 03:38:58;;;;;;;2.05;0.20;;;;;;;13.97;88.18;99424.20;1670253;86;21081;-69
2022/07/13 03:41:27;;;;;;;0.30;0.15;;;;;;;14.00;87.90;99420.27;1668101;84;21147;-69
2022/07/13 03:43:53;;;;;;;0.10;0.10;;;;;;;14.03;87.38;99419.78;1673228;84;21062;-69
2022/07/13 03:46:20;;;;;;;3.10;0.10;;;;;;;14.03;87.56;99422.46;1672412;84;20995;-69
2022/07/13 03:48:47;;;;;;;1.37;0.20;;;;;;;14.06;87.73;99420.66;1672565;84;21595;-69
2022/07/13 03:51:13;;;;;;;0.80;0.20;;;;;;;14.10;87.31;99417.00;1669145;84;21110;-68
2022/07/13 03:53:40;;;;;;;1.62;0.35;;;;;;;14.11;87.60;99415.93;1668453;84;21059;-68
2022/07/13 03:56:07;;;;;;;0.30;0.20;;;;;;;14.10;87.43;99409.77;1666689;84;21040;-68
2022/07/13 03:58:34;;;;;;;2.10;0.17;;;;;;;14.09;87.51;99405.47;1677185;84;21040;-67
2022/07/13 04:01:02;;;;;;;0.23;0.20;;;;;;;14.12;87.43;99405.52;1660807;84;21040;-70
2022/07/13 04:03:28;;;;;;;0.23;0.10;;;;;;;14.13;87.17;99409.31;1660033;84;21094;-70
2022/07/13 04:05:54;;;;;;;;;;;;;;;14.17;87.50;99405.11;1673328;84;21059;-71
2022/07/13 04:08:21;;;;;;;3.90;0.30;;;;;;;14.20;87.43;99403.31;1671607;84;20135;-68
2022/07/13 04:10:48;;;;;;;1.15;0.20;;;;;;;14.15;87.18;99412.56;1663449;84;21130;-68
2022/07/13 04:13:15;;;;;;;0.50;0.50;;;;;;;14.12;87.43;99410.34;1664346;84;21062;-68
2022/07/13 04:15:41;;;;;;;0.80;0.10;;;;;;;14.15;87.79;99412.56;1671035;84;22232;-69
2022/07/13 04:18:07;;;;;;;0.30;0.20;;;;;;;14.13;87.64;99416.01;1658906;84;21083;-72
2022/07/13 04:20:34;;;;;;;0.10;0.10;;;;;;;14.13;87.65;99407.97;1659121;84;21055;-67
2022/07/13 04:23:01;;;;;;;0.65;0.10;;;;;;;14.14;87.90;99411.45;1670504;84;21098;-71
2022/07/13 04:25:27;;;;;;;;;;;;;;;14.15;87.52;99401.04;1674071;84;21551;-68
2022/07/13 04:27:55;;;;;;;0.53;0.10;;;;;;;14.17;87.62;99405.64;1664281;84;20240;-71
2022/07/13 04:30:21;;;;;;;0.10;0.10;;;;;;;14.17;87.77;99397.06;1669567;84;21407;-67
2022/07/13 04:32:47;;;;;;;;;;;;;;;14.18;87.63;99405.91;1674143;84;21127;-68
2022/07/13 04:35:15;;;;;;;0.82;0.20;;;;;;;14.19;88.18;99399.52;1669881;84;20140;-69
2022/07/13 04:37:44;;;;;;;0.62;0.20;;;;;;;14.19;88.30;99405.69;1671937;84;21052;-69
2022/07/13 04:40:12;;;;;;;0.53;0.10;;;;;;;14.21;88.27;99398.22;1663370;84;21091;-67
2022/07/13 04:42:38;;;;;;;0.85;0.13;;;;;;;14.21;88.33;99395.54;1671956;84;21032;-69
2022/07/13 04:45:06;;;;;;;0.50;0.10;;;;;;;14.25;88.12;99394.55;1671407;84;20995;-69
2022/07/13 04:47:32;;;;;;;0.57;0.10;;;;;;;14.30;87.90;99396.54;1671679;84;21047;-69
2022/07/13 04:49:59;;;;;;;2.17;0.17;;;;;;;14.34;88.02;99398.50;1672070;84;21074;-80
2022/07/13 04:52:25;;;;;;;0.60;0.10;;;;;;;14.36;87.58;99387.55;1661129;84;21098;-80
2022/07/13 04:54:51;;;;;;;0.25;0.15;;;;;;;14.42;87.37;99390.61;1665025;84;21621;-77
2022/07/13 04:57:17;;;;;;;0.80;0.10;;;;;;;14.46;87.31;99390.95;1665586;84;21070;-75
2022/07/13 04:59:43;;;;;;;2.40;0.10;;;;;;;14.48;87.15;99384.30;1663347;84;21083;-74
2022/07/13 05:02:09;;;;;;;0.82;0.13;;;;;;;14.49;87.22;99381.92;1666740;84;21099;-76
2022/07/13 05:04:37;;;;;;;2.42;0.20;;;;;;;14.48;87.53;99384.30;1668836;84;21550;-76
2022/07/13 05:07:04;;;;;;;0.10;0.10;;;;;;;14.48;87.82;99386.17;1670306;84;21023;-74
2022/07/13 05:09:31;;;;;;;1.62;0.10;;;;;;;14.46;87.81;99378.89;1640043;86;21627;-80
2022/07/13 05:11:58;;;;;;;0.55;0.10;;;;;;;14.45;87.79;99379.42;1670934;84;21081;-75
2022/07/13 05:14:26;;;;;;;0.25;0.10;;;;;;;14.40;87.82;99355.98;1670744;84;21170;-79
2022/07/13 05:16:52;;;;;;;2.40;0.42;;;;;;;14.49;87.58;99365.83;1671495;84;21060;-67
2022/07/13 05:19:18;;;;;;;;;;;;;;;14.49;87.27;99365.02;1673134;84;21102;-66
2022/07/13 05:21:44;;;;;;;0.23;0.10;;;;;;;14.51;87.31;99373.64;1660315;84;20145;-75
2022/07/13 05:24:12;;;;;;;0.62;0.10;;;;;;;14.48;87.70;99365.52;1668568;82;20995;-78
2022/07/13 05:26:38;;;;;;;;;;;;;;;14.48;87.57;99369.55;1669817;84;21059;-82
2022/07/13 05:29:06;;;;;;;0.80;0.10;;;;;;;14.52;87.85;99377.94;1656022;84;20174;-78
2022/07/13 05:31:32;;;;;;;0.50;0.20;;;;;;;14.47;88.36;99367.94;1641688;84;20998;-81
2022/07/13 05:33:59;;;;;;;0.88;0.10;;;;;;;14.51;87.97;99370.42;1655866;84;21094;-74
2022/07/13 05:36:27;;;;;;;1.10;0.10;;;;;;;14.52;87.72;99368.05;1657864;84;21113;-72
2022/07/13 05:38:53;;;;;;;2.35;0.10;;;;;;;14.54;88.01;99367.28;1671673;84;21110;-74
2022/07/13 05:41:19;;;;;;;0.57;0.35;;;;;;;14.55;88.27;99363.53;1670188;84;21114;-74
2022/07/13 05:43:47;;;;;;;;;;;;;;;14.55;88.65;99366.74;1652030;85;21114;-75
2022/07/13 05:46:13;;;;;;;0.23;0.10;;;;;;;14.52;88.85;99361.34;1629530;86;20146;-73
2022/07/13 05:48:41;;;;;;;0.98;0.20;;;;;;;14.46;89.30;99351.55;1619106;87;21065;-65
2022/07/13 05:51:07;;;;;;;1.82;0.28;;;;;;;14.49;89.31;99360.47;1632677;86;21664;-64
2022/07/13 05:53:34;;;;;;;3.50;0.47;;;;;;;14.47;89.32;99362.58;1669449;84;21054;-63
2022/07/13 05:56:00;;;;;;;0.40;0.10;;;;;;;14.48;89.90;99358.02;1667487;84;21104;-64
2022/07/13 05:58:26;;;;;;;0.93;0.33;;;;;;;14.49;89.81;99358.32;1670677;84;21104;-65
2022/07/13 06:00:52;;;;;;;0.55;0.15;;;;;;;14.51;89.61;99361.04;1678916;84;21080;-65
2022/07/13 06:03:19;;;;;;;1.65;0.10;;;;;;;14.55;89.82;99365.41;1670743;84;21011;-65
2022/07/13 06:05:46;;;;;;;1.02;0.10;;;;;;;14.60;89.50;99364.20;1671860;84;21002;-65
2022/07/13 06:08:13;;;;;;;0.62;0.10;;;;;;;14.63;89.61;99352.98;1668209;86;21012;-66
2022/07/13 06:10:39;;;;;;;0.75;0.10;;;;;;;14.59;90.34;99354.52;1672185;84;21654;-65
2022/07/13 06:13:06;;;;;;;0.82;0.25;;;;;;;14.56;91.25;99346.40;1672866;84;20992;-65
2022/07/13 06:15:32;;;;;;;0.82;0.10;;;;;;;14.53;91.64;99358.94;1670496;84;21007;-66
2022/07/13 06:17:58;;;;;;;0.20;0.10;;;;;;;14.46;92.26;99346.19;1662556;86;21182;-66
2022/07/13 06:20:24;;;;;;;1.75;0.10;;;;;;;14.39;93.16;99345.50;1667450;84;21087;-66
2022/07/13 06:24:17;;;;;;;0.80;0.10;;;;;;;14.39;94.63;99354.38;1718533;79;22656;-67
2022/07/13 06:26:44;;;;;;;;;;;;;;;14.30;95.45;99353.66;1671862;84;21092;-65
2022/07/13 06:29:10;;;;;;;1.47;0.30;;;;;;;14.31;95.19;99364.64;1648065;84;20204;-65
2022/07/13 06:31:37;;;;;;;0.20;0.15;;;;;;;14.26;96.31;99359.17;1678331;84;20999;-66
2022/07/13 06:34:03;;;;;;;0.50;0.20;;;;;;;14.24;95.57;99347.38;1690704;83;21103;-65
2022/07/13 06:36:29;;;;;;;1.05;0.10;;;;;;;14.26;95.96;99354.65;1703961;83;21050;-65
2022/07/13 06:38:56;;;;;;;0.60;0.17;;;;;;;14.27;96.06;99352.23;1700284;83;21481;-65
2022/07/13 06:41:22;;;;;;;1.35;0.10;;;;;;;14.29;95.62;99354.69;1690185;83;21769;-66
2022/07/13 06:43:48;;;;;;;0.60;0.20;;;;;;;14.36;95.73;99356.72;1696875;83;21037;-65
2022/07/13 06:46:15;;;;;;;1.35;0.10;;;;;;;14.41;95.69;99358.97;1683930;83;20966;-65
2022/07/13 06:48:41;;;;;;;0.95;0.20;;;;;;;14.45;95.26;99356.63;1676903;83;21025;-65
2022/07/13 06:51:07;;;;;;;0.30;0.20;;;;;;;14.47;95.42;99357.21;1646399;85;21563;-66
2022/07/13 06:53:34;;;;;;;0.28;0.10;;;;;;;14.51;94.71;99357.02;1638884;85;21096;-66
2022/07/13 06:56:01;;;;;;;;;;;;;;;14.56;94.91;99369.19;1660187;83;21048;-66
2022/07/13 06:58:27;;;;;;;2.50;0.37;;;;;;;14.63;94.51;99364.23;1647357;85;20145;-66
2022/07/13 07:00:53;;;;;;;0.20;0.10;;;;;;;14.60;94.85;99363.66;1641508;85;21611;-66
2022/07/13 07:03:19;;;;;;;0.28;0.10;;;;;;;14.66;95.31;99355.73;1642818;85;21017;-65
2022/07/13 07:05:47;;;;;;;2.72;0.30;;;;;;;14.71;94.70;99358.48;1633693;85;21107;-67
2022/07/13 07:08:13;;;;;;;0.33;0.25;;;;;;;14.71;94.41;99362.00;1642458;85;21633;-66
2022/07/13 07:10:39;;;;;;;0.82;0.20;;;;;;;14.74;94.26;99364.19;1635150;85;21624;-67
2022/07/13 07:13:06;;;;;;;1.30;0.10;;;;;;;14.75;94.06;99356.98;1669576;81;20989;-66
2022/07/13 07:15:32;;;;;;;0.82;0.10;;;;;;;14.82;93.67;99354.94;1641639;85;21093;-66
2022/07/13 07:17:59;;;;;;;1.55;0.10;;;;;;;14.85;93.30;99355.00;1658955;85;22506;-68
2022/07/13 07:20:25;;;;;;;1.00;0.13;;;;;;;14.88;93.79;99365.23;1661011;85;21070;-65
2022/07/13 07:22:51;;;;;;;0.35;0.10;;;;;;;14.90;94.40;99358.59;1621661;86;21104;-66
2022/07/13 07:25:19;;;;;;;0.33;0.10;;;;;;;14.87;94.05;99364.97;1660417;85;21053;-66
2022/07/13 07:27:45;;;;;;;1.90;0.10;;;;;;;14.81;94.80;99360.57;1647496;85;21002;-67
2022/07/13 07:30:12;;;;;;;0.35;0.20;;;;;;;14.76;95.81;99361.27;1654619;85;21570;-66
2022/07/13 07:32:39;;;;;;;1.50;0.20;;;;;;;14.75;97.03;99361.00;1658586;85;21093;-65
2022/07/13 07:35:08;;;;;;;1.50;0.20;;;;;;;14.72;97.12;99354.77;1615344;87;21075;-65
2022/07/13 07:37:38;;;;;;;1.55;0.23;;;;;;;14.69;97.07;99356.57;1660733;85;21597;-66
2022/07/13 07:40:07;;;;;;;0.40;0.23;;;;;;;14.66;97.66;99362.43;1644138;85;21166;-66
2022/07/13 07:42:35;;;;;;;0.85;0.30;;;;;;;14.66;98.43;99352.52;1643009;85;21044;-67
2022/07/13 07:45:03;;;;;;;0.10;0.10;;;;;;;14.64;99.08;99342.55;1647431;84;21056;-65
2022/07/13 07:47:29;;;;;;;0.57;0.20;;;;;;;14.69;99.00;99352.55;1683033;84;21028;-66
2022/07/13 07:49:55;;;;;;;0.40;0.20;;;;;;;14.72;98.73;99349.40;1669679;84;21069;-65
2022/07/13 07:52:21;;;;;;;0.50;0.20;;;;;;;14.73;99.10;99351.02;1670708;84;21088;-66
2022/07/13 07:54:48;;;;;;;0.88;0.20;;;;;;;14.70;99.27;99356.88;1692871;84;21581;-66
2022/07/13 07:57:15;;;;;;;3.55;0.20;;;;;;;14.67;99.30;99365.39;1676095;83;21056;-66
2022/07/13 07:59:41;;;;;;;;;;;;;;;14.64;99.84;99355.16;1686374;84;21010;-65
2022/07/13 08:02:10;;;;;;;1.10;0.10;;;;;;;14.64;99.76;99359.18;1673771;84;20273;-67
2022/07/13 08:04:38;;;;;;;1.52;0.30;;;;;;;14.58;100.00;99360.41;1676557;84;21579;-66
2022/07/13 08:07:04;;;;;;;0.50;0.20;;;;;;;14.57;100.00;99368.69;1672391;84;21021;-66
2022/07/13 08:09:31;;;;;;;0.65;0.10;;;;;;;14.59;100.00;99358.53;1671505;84;21883;-66
2022/07/13 08:11:58;;;;;;;0.57;0.20;;;;;;;14.60;100.00;99380.30;1673558;84;21022;-66
2022/07/13 08:14:24;;;;;;;1.02;0.20;;;;;;;14.65;100.00;99379.56;1660081;85;21047;-66
2022/07/13 08:16:50;;;;;;;;;;;;;;;14.65;100.00;99372.86;1664385;84;21136;-66
2022/07/13 08:19:18;;;;;;;0.70;0.30;;;;;;;14.65;100.00;99370.98;1652356;85;20200;-66
2022/07/13 08:21:45;;;;;;;;;;;;;;;14.60;100.00;99381.09;1668357;85;21056;-66
2022/07/13 08:24:11;;;;;;;0.20;0.20;;;;;;;14.64;100.00;99367.23;1673051;83;20148;-67
2022/07/13 08:26:40;;;;;;;1.77;0.20;;;;;;;14.62;100.00;99368.80;1673946;84;21046;-66
2022/07/13 08:29:06;;;;;;;0.50;0.17;;;;;;;14.66;100.00;99367.80;1673698;84;21017;-66
2022/07/13 08:31:32;;;;;;;0.75;0.20;;;;;;;14.71;100.00;99367.37;1672554;84;21505;-66
2022/07/13 08:39:28;;;;;;;0.78;0.28;;;;;;;14.71;100.00;99373.23;1701887;83;21162;-66
2022/07/13 08:42:02;;;;;;;1.00;0.10;;;;;;;14.69;100.00;99368.14;1698952;83;21041;-67
2022/07/13 08:44:25;;;;;;;2.40;0.37;;;;;;;14.69;100.00;99367.30;1703037;83;20972;-66
2022/07/13 08:46:55;;;;;;;;;;;;;;;14.66;100.00;99378.53;1702901;83;21049;-66
2022/07/13 08:49:21;;;;;;;1.67;0.55;;;;;;;14.65;100.00;99379.56;1701393;83;20133;-67
2022/07/13 08:51:48;;;;;;;3.45;0.55;;;;;;;14.59;100.00;99371.41;1701012;83;21101;-66
2022/07/13 08:54:14;;;;;;;2.40;0.42;;;;;;;14.60;100.00;99374.39;1701197;83;21002;-65
2022/07/13 08:56:41;;;;;;;0.50;0.20;;;;;;;14.64;100.00;99369.37;1661176;83;21126;-67
2022/07/13 08:59:07;;;;;;;0.53;0.37;;;;;;;14.66;100.00;99372.62;1655556;86;21186;-65
2022/07/13 09:01:34;;;;;;;0.23;0.13;;;;;;;14.34;100.00;99313.25;1683858;83;21030;-67
2022/07/13 09:04:00;;;;;;;;;;;;;;;14.71;100.00;99371.39;1701224;82;21605;-67
2022/07/13 09:06:47;;;;;;;1.17;0.67;;;;;;;14.74;100.00;99370.09;1697183;82;20438;-68
2022/07/13 09:09:28;;;;;;;0.93;0.35;;;;;;;14.72;100.00;99364.95;1698605;82;21053;-67
2022/07/13 09:12:19;;;;;;;0.40;0.10;;;;;;;14.77;100.00;99370.96;1699810;82;21049;-68
2022/07/13 09:15:06;;;;;;;3.05;0.37;;;;;;;14.81;100.00;99367.28;1693721;82;21181;-67
2022/07/13 09:17:43;;;;;;;0.72;0.13;;;;;;;14.89;100.00;99373.05;1664429;84;21026;-67
2022/07/13 09:20:20;;;;;;;0.72;0.10;;;;;;;14.94;100.00;99371.81;1648659;85;21086;-67
2022/07/13 09:22:56;;;;;;;0.30;0.10;;;;;;;15.01;100.00;99380.23;1668758;83;21054;-68
2022/07/13 09:25:37;;;;;;;0.80;0.10;;;;;;;15.03;100.00;99376.78;1678048;84;21053;-67
2022/07/13 09:28:09;;;;;;;0.10;0.10;;;;;;;15.07;100.00;99373.39;1641477;85;21514;-68
2022/07/13 09:30:43;;;;;;;0.75;0.30;;;;;;;15.12;100.00;99372.66;1631454;86;21047;-66
2022/07/13 09:33:11;;;;;;;0.53;0.10;;;;;;;15.11;100.00;99375.06;1630911;85;21046;-67
2022/07/13 09:35:49;;;;;;;0.23;0.10;;;;;;;15.16;100.00;99367.92;1645825;85;21079;-69
2022/07/13 09:38:38;;;;;;;0.20;0.10;;;;;;;15.19;100.00;99371.97;1634672;85;21151;-68
2022/07/13 09:41:24;;;;;;;0.47;0.10;;;;;;;15.24;100.00;99371.23;1652737;85;21149;-68
2022/07/13 09:46:59;;;;;;;0.50;0.10;;;;;;;15.26;100.00;99365.93;1643196;85;21227;-67
2022/07/13 09:49:43;;;;;;;0.15;0.15;;;;;;;15.26;100.00;99367.27;1634145;85;21556;-67
2022/07/13 09:52:17;;;;;;;0.60;0.10;;;;;;;15.27;100.00;99361.37;1658032;84;21042;-68
2022/07/13 09:54:50;;;;;;;0.62;0.00;;;;;;;15.23;99.68;99361.03;1670879;84;20996;-66
2022/07/13 09:57:17;;;;;;;0.20;0.00;;;;;;;15.27;100.00;99366.73;1660988;84;21080;-69
2022/07/13 09:59:44;;;;;;;0.15;0.00;;;;;;;15.28;99.92;99369.18;1665015;84;21042;-68
2022/07/13 10:02:12;;;;;;;0.82;0.10;;;;;;;15.30;99.67;99372.44;1660106;85;21557;-68
2022/07/13 10:04:40;;;;;;;2.27;0.10;;;;;;;15.32;99.78;99371.66;1659462;85;21011;-67
2022/07/13 10:07:09;;;;;;;1.65;0.10;;;;;;;15.33;99.63;99367.94;1689543;83;21094;-67
2022/07/13 10:09:40;;;;;;;0.10;0.05;;;;;;;15.36;99.64;99373.33;1699515;83;21015;-70
2022/07/13 10:12:08;;;;;;;1.12;0.10;;;;;;;15.37;99.31;99354.30;1690097;84;21521;-69
2022/07/13 10:14:36;;;;;;;0.50;0.13;;;;;;;15.36;98.74;99367.42;1692169;83;21487;-68
2022/07/13 10:17:10;;;;;;;0.20;0.10;;;;;;;15.37;98.83;99352.95;1708010;83;21034;-69
2022/07/13 10:20:00;;;;;;;0.42;0.10;;;;;;;15.37;99.16;99356.98;1677718;83;21093;-67
2022/07/13 10:22:32;;;;;;;0.70;0.10;;;;;;;15.36;98.77;99356.69;1700347;81;21058;-67
2022/07/13 10:25:00;;;;;;;0.20;0.03;;;;;;;15.38;98.69;99361.82;1671803;85;21066;-67
2022/07/13 10:27:32;;;;;;;0.55;0.10;;;;;;;15.42;98.79;99358.13;1669320;85;21084;-67
2022/07/13 10:30:06;;;;;;;0.98;0.37;;;;;;;15.43;98.97;99351.70;1675076;85;21470;-67
2022/07/13 10:32:39;;;;;;;0.15;0.10;;;;;;;15.49;98.82;99353.41;1666776;85;21034;-69
2022/07/13 10:35:17;;;;;;;0.10;0.10;;;;;;;15.50;97.71;99346.96;1696939;83;21038;-69
2022/07/13 10:38:02;;;;;;;0.10;0.03;;;;;;;15.49;97.09;99351.53;1656361;85;21125;-67
2022/07/13 10:40:31;;;;;;;0.93;0.10;;;;;;;15.54;97.35;99343.55;1649189;85;21126;-68
2022/07/13 10:43:04;;;;;;;0.28;0.10;;;;;;;15.54;97.42;99342.75;1643962;85;21165;-68
2022/07/13 10:45:42;;;;;;;0.40;0.10;;;;;;;15.58;97.14;99342.54;1659753;84;21067;-68
2022/07/13 10:48:32;;;;;;;0.35;0.35;;;;;;;15.63;97.10;99346.63;1665614;84;21138;-67
2022/07/13 10:51:01;;;;;;;0.68;0.10;;;;;;;15.65;96.88;99344.53;1667729;84;21032;-68
2022/07/13 10:53:46;;;;;;;1.40;0.13;;;;;;;15.67;96.72;99344.27;1666995;84;21066;-69
2022/07/13 10:56:18;;;;;;;1.45;0.10;;;;;;;15.69;96.52;99347.52;1669100;84;21038;-68
2022/07/13 10:58:46;;;;;;;0.10;0.10;;;;;;;15.69;96.52;99347.52;1676264;84;21477;-68
2022/07/13 11:01:43;;;;;;;1.05;0.10;;;;;;;15.70;96.06;99341.90;1670297;84;21546;-68
2022/07/13 11:04:14;;;;;;;2.25;0.10;;;;;;;15.75;95.97;99346.05;1673946;84;21471;-67
2022/07/13 11:07:03;;;;;;;1.75;0.10;;;;;;;15.76;96.04;99346.34;1686278;84;21103;-67
2022/07/13 11:09:32;;;;;;;0.65;0.10;;;;;;;15.76;96.32;99336.10;1683874;84;21049;-69
2022/07/13 11:11:59;;;;;;;0.10;0.10;;;;;;;15.77;96.39;99347.15;1653514;84;21055;-68
2022/07/13 11:14:43;;;;;;;0.20;0.20;;;;;;;15.80;96.54;99336.42;1631106;86;21057;-69
2022/07/13 11:17:23;;;;;;;0.40;0.10;;;;;;;15.85;96.07;99348.06;1630834;86;21084;-69
2022/07/13 11:19:55;;;;;;;0.28;0.20;;;;;;;15.85;95.47;99341.88;1632895;86;21540;-68
2022/07/13 11:25:36;;;;;;;0.85;0.40;;;;;;;15.69;95.08;99328.70;1666060;84;21602;-68
2022/07/13 11:28:14;;;;;;;1.27;0.10;;;;;;;15.74;95.74;99343.60;1662923;84;21634;-68
2022/07/13 11:30:44;;;;;;;1.60;0.03;;;;;;;15.68;95.32;99329.25;1668909;84;21054;-69
2022/07/13 11:33:11;;;;;;;0.25;0.03;;;;;;;15.67;95.68;99348.30;1672836;84;21058;-70
2022/07/13 11:35:47;;;;;;;3.37;1.35;;;;;;;15.66;96.21;99354.20;1673518;84;21054;-69
2022/07/13 11:38:15;;;;;;;1.05;0.10;;;;;;;15.69;96.52;99349.69;1673909;84;21071;-69
2022/07/13 11:40:41;;;;;;;0.42;0.10;;;;;;;15.69;96.52;99349.69;1674088;84;21019;-68
2022/07/13 11:43:10;;;;;;;0.13;0.10;;;;;;;15.68;96.97;99347.25;1675120;84;21062;-68
2022/07/13 11:45:40;;;;;;;2.72;0.10;;;;;;;15.66;97.05;99351.52;1690188;83;21099;-70
2022/07/13 11:48:12;;;;;;;1.00;0.00;;;;;;;15.69;97.08;99343.48;1710281;84;20975;-70
2022/07/13 11:50:43;;;;;;;2.22;0.00;;;;;;;15.73;96.21;99340.11;1708033;82;20978;-67
2022/07/13 11:53:30;;;;;;;0.75;0.15;;;;;;;15.79;95.80;99345.02;1705683;82;20994;-68
2022/07/13 11:56:05;;;;;;;0.65;0.00;;;;;;;15.86;95.76;99345.67;1699803;83;21153;-67